Time;durP1;ratioP1;P1;durP2;ratioP2;P2;SDS_P1;SDS_P2;PMS_P1;PMS_P2;Temp;Humidity;BMP_temperature;BMP_pressure;BME280_temperature;BME280_humidity;BME280_pressure;Samples;Min_cycle;Max_cycle;Signal;HPM_P1;HPM_P2
2024/01/29 00:01:28;;;;;;;12.98;9.30;;;7.10;87.30;;;;;;5039740;28;20021;-74
2024/01/29 00:03:53;;;;;;;15.63;9.93;;;7.10;87.40;;;;;;5038654;28;20075;-73
2024/01/29 00:06:19;;;;;;;14.25;9.32;;;7.10;87.30;;;;;;5033864;28;20096;-74
2024/01/29 00:08:45;;;;;;;13.90;9.13;;;7.00;87.40;;;;;;5038569;28;20025;-73
2024/01/29 00:11:11;;;;;;;13.85;8.90;;;7.00;87.40;;;;;;5035531;28;20103;-73
2024/01/29 00:13:36;;;;;;;13.45;9.05;;;6.90;87.50;;;;;;5037495;28;20458;-73
2024/01/29 00:16:02;;;;;;;13.95;9.80;;;6.90;87.50;;;;;;5044224;28;20398;-73
2024/01/29 00:18:28;;;;;;;13.50;9.80;;;6.80;87.70;;;;;;5038163;28;20025;-74
2024/01/29 00:20:57;;;;;;;13.43;9.45;;;6.90;87.70;;;;;;5033036;28;20025;-74
2024/01/29 00:23:23;;;;;;;14.77;9.70;;;6.90;87.70;;;;;;5039118;28;20017;-76
2024/01/29 00:25:49;;;;;;;14.98;9.80;;;6.90;87.70;;;;;;5041673;28;20420;-73
2024/01/29 00:28:14;;;;;;;13.95;9.73;;;6.80;87.70;;;;;;5042593;28;20021;-73
2024/01/29 00:30:40;;;;;;;15.40;9.48;;;6.80;87.70;;;;;;5037103;28;20028;-73
2024/01/29 00:33:06;;;;;;;14.43;9.38;;;6.70;87.80;;;;;;5033844;28;20033;-73
2024/01/29 00:35:31;;;;;;;15.20;9.68;;;6.70;87.90;;;;;;5041054;28;20049;-73
2024/01/29 00:37:57;;;;;;;14.40;10.20;;;6.60;88.00;;;;;;5039631;28;20017;-73
2024/01/29 00:40:25;;;;;;;11.98;9.23;;;6.60;88.20;;;;;;5038941;28;20044;-74
2024/01/29 00:42:50;;;;;;;16.38;10.55;;;6.50;88.40;;;;;;5034634;28;20021;-74
2024/01/29 00:45:16;;;;;;;13.60;9.80;;;6.50;88.60;;;;;;5035152;28;20040;-72
2024/01/29 00:47:41;;;;;;;14.45;10.30;;;6.40;88.80;;;;;;5037891;28;20347;-73
2024/01/29 00:50:08;;;;;;;14.63;9.55;;;6.40;88.80;;;;;;5050598;28;20025;-78
2024/01/29 00:52:34;;;;;;;15.60;10.15;;;6.30;88.90;;;;;;5038044;28;20036;-73
2024/01/29 00:55:00;;;;;;;12.82;9.35;;;6.30;89.00;;;;;;5036271;28;20037;-73
2024/01/29 00:57:26;;;;;;;14.35;10.18;;;6.30;89.10;;;;;;5032582;28;20013;-74
2024/01/29 00:59:51;;;;;;;13.02;10.25;;;6.30;89.20;;;;;;5040770;27;20036;-73
2024/01/29 01:02:17;;;;;;;15.25;10.35;;;6.20;89.20;;;;;;5035783;28;20043;-72
2024/01/29 01:04:43;;;;;;;14.45;9.35;;;6.20;89.20;;;;;;5045762;28;20441;-72
2024/01/29 01:07:08;;;;;;;15.25;10.13;;;6.10;89.40;;;;;;5036727;28;20029;-72
2024/01/29 01:09:34;;;;;;;14.93;9.73;;;6.10;89.50;;;;;;5035714;28;20021;-72
2024/01/29 01:12:00;;;;;;;14.52;10.18;;;6.20;89.40;;;;;;5034120;28;20017;-72
2024/01/29 01:14:25;;;;;;;14.32;10.13;;;6.20;89.50;;;;;;5037114;28;20030;-72
2024/01/29 01:16:51;;;;;;;16.17;9.77;;;6.10;89.50;;;;;;5047473;28;20017;-71
2024/01/29 01:19:17;;;;;;;13.02;9.93;;;6.10;89.50;;;;;;5046699;28;20408;-72
2024/01/29 01:21:43;;;;;;;14.63;10.57;;;6.10;89.50;;;;;;5043677;28;20454;-78
2024/01/29 01:24:08;;;;;;;13.20;10.13;;;6.00;89.60;;;;;;5041342;28;20056;-73
2024/01/29 01:26:35;;;;;;;13.25;9.52;;;6.00;89.60;;;;;;5042347;28;20507;-73
2024/01/29 01:29:01;;;;;;;16.17;10.40;;;6.00;89.80;;;;;;5032562;28;20029;-74
2024/01/29 01:31:26;;;;;;;14.52;9.55;;;5.90;89.80;;;;;;5035594;28;20078;-74
2024/01/29 01:33:52;;;;;;;13.73;9.68;;;6.00;90.00;;;;;;5046530;28;20065;-73
2024/01/29 01:36:18;;;;;;;12.85;9.48;;;6.00;89.90;;;;;;5047246;28;20115;-77
2024/01/29 01:38:43;;;;;;;14.98;10.65;;;5.90;89.90;;;;;;5039652;28;20450;-74
2024/01/29 01:41:09;;;;;;;14.35;10.38;;;5.90;89.90;;;;;;5037055;28;20028;-74
2024/01/29 01:43:35;;;;;;;12.38;9.85;;;5.90;90.00;;;;;;5040468;28;20198;-74
2024/01/29 01:46:00;;;;;;;13.38;10.15;;;5.80;90.10;;;;;;5037027;28;20057;-73
2024/01/29 01:48:26;;;;;;;13.80;10.57;;;5.90;90.20;;;;;;5035666;28;20445;-73
2024/01/29 01:50:52;;;;;;;14.43;10.75;;;5.80;90.20;;;;;;5037740;28;20469;-75
2024/01/29 01:53:17;;;;;;;15.80;11.07;;;5.90;90.30;;;;;;5031515;28;20036;-74
2024/01/29 01:55:43;;;;;;;15.10;10.10;;;5.80;90.20;;;;;;5043704;28;20122;-74
2024/01/29 01:58:10;;;;;;;14.48;10.07;;;5.80;90.30;;;;;;5035641;28;20675;-74
2024/01/29 02:00:36;;;;;;;14.93;11.07;;;5.80;90.30;;;;;;5043907;28;20465;-74
2024/01/29 02:03:02;;;;;;;15.98;10.43;;;5.80;90.30;;;;;;5035088;28;20017;-74
2024/01/29 02:05:27;;;;;;;15.02;10.75;;;5.80;90.40;;;;;;5038926;28;20021;-73
2024/01/29 02:07:53;;;;;;;13.75;10.27;;;5.90;90.20;;;;;;5032261;28;20048;-74
2024/01/29 02:10:19;;;;;;;14.10;9.63;;;5.80;90.20;;;;;;5035399;28;20183;-72
2024/01/29 02:12:45;;;;;;;13.20;9.63;;;5.80;90.20;;;;;;5026275;28;20033;-73
2024/01/29 02:15:11;;;;;;;13.98;10.13;;;5.80;90.20;;;;;;5034069;28;20035;-73
2024/01/29 02:17:36;;;;;;;14.15;10.75;;;5.80;90.30;;;;;;5028952;28;20050;-73
2024/01/29 02:20:04;;;;;;;15.52;10.25;;;5.80;90.30;;;;;;5037004;28;20041;-74
2024/01/29 02:22:29;;;;;;;16.02;10.27;;;5.70;90.30;;;;;;5034273;28;20113;-73
2024/01/29 02:24:55;;;;;;;14.23;10.35;;;5.80;90.50;;;;;;5034215;28;20123;-72
2024/01/29 02:27:21;;;;;;;13.77;10.38;;;5.80;90.50;;;;;;5045858;28;20103;-73
2024/01/29 02:29:46;;;;;;;14.18;10.35;;;5.70;90.50;;;;;;5044181;28;20095;-73
2024/01/29 02:32:12;;;;;;;14.77;10.55;;;5.70;90.50;;;;;;5027036;28;20433;-74
2024/01/29 02:34:38;;;;;;;15.80;10.80;;;5.70;90.50;;;;;;5028680;28;20442;-73
2024/01/29 02:37:03;;;;;;;12.80;9.68;;;5.70;90.60;;;;;;5030888;28;20068;-73
2024/01/29 02:39:29;;;;;;;13.68;9.57;;;5.70;90.60;;;;;;5052614;28;20049;-75
2024/01/29 02:41:55;;;;;;;14.35;9.85;;;5.70;90.70;;;;;;5033582;28;20429;-73
2024/01/29 02:44:20;;;;;;;14.18;9.80;;;5.70;90.70;;;;;;5032436;28;20082;-73
2024/01/29 02:46:46;;;;;;;16.33;9.88;;;5.80;90.60;;;;;;5038126;28;20021;-72
2024/01/29 02:49:12;;;;;;;13.93;11.02;;;5.80;90.50;;;;;;5031823;28;20071;-75
2024/01/29 02:51:37;;;;;;;16.95;11.15;;;5.80;90.40;;;;;;5041139;28;20024;-73
2024/01/29 02:54:03;;;;;;;13.50;10.32;;;5.80;90.40;;;;;;5027843;28;20065;-76
2024/01/29 02:56:29;;;;;;;13.77;9.82;;;5.80;90.40;;;;;;5038377;28;20029;-73
2024/01/29 02:58:55;;;;;;;13.50;9.82;;;5.80;90.40;;;;;;5036547;28;20112;-73
2024/01/29 03:01:20;;;;;;;13.23;10.00;;;5.70;90.60;;;;;;5032168;28;20025;-73
2024/01/29 03:03:46;;;;;;;14.75;9.93;;;5.70;90.60;;;;;;5031121;28;20450;-73
2024/01/29 03:06:12;;;;;;;15.75;10.10;;;5.70;90.70;;;;;;5038021;28;20361;-73
2024/01/29 03:08:38;;;;;;;14.63;10.35;;;5.70;90.60;;;;;;5036254;28;20052;-77
2024/01/29 03:11:04;;;;;;;14.25;10.18;;;5.70;90.70;;;;;;5042414;28;20021;-72
2024/01/29 03:13:30;;;;;;;14.75;10.70;;;5.70;90.80;;;;;;5045785;28;20037;-74
2024/01/29 03:15:56;;;;;;;13.38;10.20;;;5.70;90.80;;;;;;5035724;28;20029;-72
2024/01/29 03:18:22;;;;;;;15.13;10.15;;;5.70;90.70;;;;;;5034202;28;20354;-78
2024/01/29 03:20:47;;;;;;;15.18;10.45;;;5.70;90.70;;;;;;5028163;28;20037;-73
2024/01/29 03:23:13;;;;;;;15.68;10.43;;;5.70;90.80;;;;;;5040454;28;20038;-73
2024/01/29 03:25:39;;;;;;;13.75;9.90;;;5.70;90.80;;;;;;5030996;28;20425;-73
2024/01/29 03:28:05;;;;;;;16.30;11.15;;;5.60;90.90;;;;;;5031575;28;20035;-73
2024/01/29 03:30:31;;;;;;;14.93;10.25;;;5.60;90.80;;;;;;5031385;28;20064;-73
2024/01/29 03:32:57;;;;;;;15.63;10.45;;;5.60;90.80;;;;;;5034157;28;20112;-72
2024/01/29 03:35:22;;;;;;;15.05;10.75;;;5.60;90.80;;;;;;5033898;28;20132;-71
2024/01/29 03:37:48;;;;;;;14.65;10.23;;;5.60;90.90;;;;;;5035099;28;20394;-75
2024/01/29 03:40:14;;;;;;;15.32;10.77;;;5.50;91.00;;;;;;5030750;28;20041;-74
2024/01/29 03:42:40;;;;;;;15.27;11.10;;;5.50;91.10;;;;;;5048720;28;20067;-73
2024/01/29 03:45:06;;;;;;;15.93;11.07;;;5.60;91.20;;;;;;5049198;28;20074;-73
2024/01/29 03:47:31;;;;;;;14.82;11.32;;;5.50;91.30;;;;;;5030830;28;20604;-74
2024/01/29 03:49:59;;;;;;;13.93;11.02;;;5.50;91.20;;;;;;5037205;28;20074;-73
2024/01/29 03:52:25;;;;;;;15.35;11.23;;;5.50;91.20;;;;;;5034033;28;20040;-78
2024/01/29 03:54:51;;;;;;;16.58;12.05;;;5.50;91.30;;;;;;5030306;28;20052;-74
2024/01/29 03:57:16;;;;;;;15.13;10.60;;;5.40;91.40;;;;;;5027846;28;20100;-74
2024/01/29 03:59:42;;;;;;;15.60;11.25;;;5.40;91.50;;;;;;5039902;28;20504;-71
2024/01/29 04:02:08;;;;;;;15.40;10.70;;;5.40;91.50;;;;;;5034030;28;20083;-73
2024/01/29 04:04:34;;;;;;;14.15;10.20;;;5.50;91.50;;;;;;5046184;28;20033;-73
2024/01/29 04:06:59;;;;;;;16.60;10.55;;;5.50;91.50;;;;;;5038421;28;20419;-74
2024/01/29 04:09:25;;;;;;;14.43;11.23;;;5.50;91.50;;;;;;5041809;28;20037;-73
2024/01/29 04:11:51;;;;;;;15.85;11.75;;;5.50;91.50;;;;;;5038397;28;20022;-73
2024/01/29 04:14:17;;;;;;;16.38;11.52;;;5.50;91.40;;;;;;5037958;28;20766;-73
2024/01/29 04:16:46;;;;;;;15.43;11.98;;;5.60;91.40;;;;;;5036281;28;20013;-72
2024/01/29 04:19:12;;;;;;;14.88;10.85;;;5.50;91.40;;;;;;5040703;28;20028;-73
2024/01/29 04:21:42;;;;;;;14.98;10.57;;;5.50;91.40;;;;;;5036116;28;20366;-73
2024/01/29 04:24:10;;;;;;;15.18;10.65;;;5.50;91.50;;;;;;5037350;28;20425;-72
2024/01/29 04:26:36;;;;;;;17.55;11.13;;;5.50;91.50;;;;;;5039946;28;20020;-73
2024/01/29 04:29:02;;;;;;;14.77;10.35;;;5.50;91.50;;;;;;5035856;28;20088;-73
2024/01/29 04:31:27;;;;;;;14.63;10.73;;;5.50;91.60;;;;;;5031171;28;20454;-74
2024/01/29 04:33:53;;;;;;;15.45;11.02;;;5.40;91.60;;;;;;5025651;28;20038;-74
2024/01/29 04:36:19;;;;;;;15.63;10.43;;;5.40;91.60;;;;;;5031807;28;20048;-73
2024/01/29 04:38:44;;;;;;;14.75;10.73;;;5.40;91.70;;;;;;5036677;28;20021;-73
2024/01/29 04:41:20;;;;;;;15.05;10.65;;;5.40;91.70;;;;;;5040575;28;20048;-73
2024/01/29 04:43:46;;;;;;;16.45;11.07;;;5.40;91.60;;;;;;5035006;28;20379;-73
2024/01/29 04:46:11;;;;;;;14.65;10.52;;;5.30;91.80;;;;;;5027231;28;20017;-73
2024/01/29 04:48:41;;;;;;;13.45;10.43;;;5.30;91.80;;;;;;5031868;28;20021;-74
2024/01/29 04:51:07;;;;;;;14.55;10.73;;;5.30;91.80;;;;;;5037516;28;20021;-77
2024/01/29 04:53:34;;;;;;;14.25;11.18;;;5.30;91.90;;;;;;5041389;28;20029;-73
2024/01/29 04:56:05;;;;;;;15.60;10.63;;;5.30;91.80;;;;;;5039155;28;20422;-72
2024/01/29 04:58:32;;;;;;;15.55;10.18;;;5.20;91.90;;;;;;5031926;28;20018;-73
2024/01/29 05:01:01;;;;;;;15.02;11.00;;;5.10;91.80;;;;;;5037507;28;20453;-72
2024/01/29 05:03:26;;;;;;;17.45;11.32;;;5.10;91.90;;;;;;5043634;28;20060;-73
2024/01/29 05:05:53;;;;;;;14.13;10.77;;;5.10;92.00;;;;;;5040175;28;20849;-74
2024/01/29 05:08:19;;;;;;;13.15;10.68;;;5.10;92.00;;;;;;5032217;28;20029;-73
2024/01/29 05:10:47;;;;;;;14.80;10.45;;;5.10;92.10;;;;;;5035693;28;20408;-73
2024/01/29 05:13:14;;;;;;;15.32;11.48;;;5.00;92.10;;;;;;5043603;28;20075;-72
2024/01/29 05:15:40;;;;;;;15.50;11.45;;;5.00;92.30;;;;;;5040290;28;20032;-72
2024/01/29 05:18:06;;;;;;;15.95;12.07;;;5.00;92.40;;;;;;5035379;28;20031;-73
2024/01/29 05:20:32;;;;;;;17.50;13.32;;;5.00;92.50;;;;;;5041984;28;20775;-73
2024/01/29 05:22:58;;;;;;;16.05;11.70;;;5.00;92.50;;;;;;5044529;28;20041;-73
2024/01/29 05:25:24;;;;;;;15.13;11.35;;;5.00;92.40;;;;;;5038476;28;20041;-76
2024/01/29 05:27:49;;;;;;;15.00;10.73;;;4.90;92.60;;;;;;5041058;28;20092;-72
2024/01/29 05:30:16;;;;;;;13.95;10.50;;;4.90;92.60;;;;;;5040744;28;20040;-72
2024/01/29 05:32:42;;;;;;;15.05;11.40;;;5.00;92.60;;;;;;5039529;28;20040;-73
2024/01/29 05:35:09;;;;;;;13.98;10.68;;;4.90;92.50;;;;;;5033592;28;20053;-72
2024/01/29 05:37:35;;;;;;;15.63;11.20;;;4.90;92.50;;;;;;5047319;28;20023;-72
2024/01/29 05:40:01;;;;;;;14.00;10.88;;;5.00;92.50;;;;;;5031745;28;20322;-73
2024/01/29 05:42:27;;;;;;;16.25;11.48;;;4.90;92.40;;;;;;5037766;28;20406;-73
2024/01/29 05:44:53;;;;;;;15.68;11.85;;;4.90;92.50;;;;;;5043766;28;20051;-73
2024/01/29 05:47:18;;;;;;;16.30;12.48;;;4.90;92.50;;;;;;5031736;28;20013;-73
2024/01/29 05:49:44;;;;;;;21.13;13.98;;;4.90;92.60;;;;;;5042415;28;20029;-73
2024/01/29 05:52:10;;;;;;;23.02;15.18;;;4.90;92.60;;;;;;5040864;28;20021;-74
2024/01/29 05:54:36;;;;;;;34.50;20.17;;;4.90;92.60;;;;;;5032225;28;20017;-74
2024/01/29 05:57:02;;;;;;;43.75;27.77;;;5.00;92.60;;;;;;5039140;28;20473;-73
2024/01/29 05:59:28;;;;;;;47.20;28.65;;;5.00;92.70;;;;;;5032426;28;20472;-73
2024/01/29 06:01:53;;;;;;;45.15;27.83;;;5.00;92.70;;;;;;5047279;28;20032;-72
2024/01/29 06:04:19;;;;;;;37.83;26.65;;;5.00;92.80;;;;;;5032058;28;20037;-75
2024/01/29 06:06:45;;;;;;;37.35;25.15;;;5.00;92.80;;;;;;5034946;28;20013;-73
2024/01/29 06:09:10;;;;;;;35.83;25.42;;;5.00;92.90;;;;;;5032288;28;20350;-73
2024/01/29 06:11:36;;;;;;;34.83;24.85;;;5.10;92.90;;;;;;5031254;28;20453;-73
2024/01/29 06:14:02;;;;;;;30.50;24.88;;;5.10;92.90;;;;;;5038663;28;20094;-73
2024/01/29 06:16:29;;;;;;;31.75;24.13;;;5.10;92.80;;;;;;5048257;28;20021;-72
2024/01/29 06:18:55;;;;;;;31.67;23.35;;;5.10;92.80;;;;;;5036887;28;20029;-73
2024/01/29 06:21:24;;;;;;;28.75;22.23;;;5.10;92.80;;;;;;5047847;28;20449;-73
2024/01/29 06:23:49;;;;;;;23.58;19.13;;;5.10;92.80;;;;;;5031965;28;20464;-72
2024/01/29 06:26:15;;;;;;;23.23;17.48;;;5.10;92.90;;;;;;5039675;28;20026;-73
2024/01/29 06:28:44;;;;;;;19.98;14.77;;;5.10;92.90;;;;;;5043833;28;20024;-73
2024/01/29 06:31:10;;;;;;;19.38;14.57;;;5.10;92.80;;;;;;5035009;28;20021;-72
2024/01/29 06:33:36;;;;;;;21.10;14.50;;;5.10;92.80;;;;;;5040325;28;20031;-74
2024/01/29 06:36:05;;;;;;;16.50;12.68;;;5.20;92.70;;;;;;5036184;28;20041;-73
2024/01/29 06:38:31;;;;;;;18.48;12.82;;;5.20;92.70;;;;;;5037777;28;20021;-74
2024/01/29 06:40:58;;;;;;;19.02;12.82;;;5.10;92.60;;;;;;5031173;28;20024;-73
2024/01/29 06:43:23;;;;;;;16.73;12.63;;;5.20;92.60;;;;;;5039490;28;20494;-73
2024/01/29 06:45:49;;;;;;;17.45;12.75;;;5.10;92.70;;;;;;5032305;28;20049;-73
2024/01/29 06:48:16;;;;;;;16.92;12.30;;;5.10;92.80;;;;;;5037987;28;20095;-72
2024/01/29 06:50:42;;;;;;;15.80;11.75;;;5.20;92.70;;;;;;5039607;28;20024;-73
2024/01/29 06:53:08;;;;;;;15.73;11.45;;;5.10;92.70;;;;;;5039423;28;20021;-73
2024/01/29 06:55:33;;;;;;;16.05;11.10;;;5.10;92.70;;;;;;5035574;28;20075;-73
2024/01/29 06:57:59;;;;;;;17.23;11.52;;;5.10;92.80;;;;;;5039275;28;20100;-72
2024/01/29 07:00:25;;;;;;;15.52;11.25;;;5.10;92.70;;;;;;5031378;28;20027;-77
2024/01/29 07:02:50;;;;;;;18.60;12.65;;;5.20;92.70;;;;;;5045563;28;20026;-72
2024/01/29 07:05:16;;;;;;;19.30;12.98;;;5.20;92.70;;;;;;5032831;28;20476;-72
2024/01/29 07:07:42;;;;;;;17.17;12.60;;;5.20;92.60;;;;;;5038763;28;20021;-71
2024/01/29 07:10:08;;;;;;;20.80;13.75;;;5.20;92.70;;;;;;5029293;28;20323;-75
2024/01/29 07:12:33;;;;;;;19.73;13.48;;;5.20;92.80;;;;;;5040396;28;20056;-72
2024/01/29 07:14:59;;;;;;;23.67;14.63;;;5.10;92.70;;;;;;5027588;28;20029;-74
2024/01/29 07:17:25;;;;;;;22.88;14.20;;;5.20;92.80;;;;;;5034172;28;20026;-73
2024/01/29 07:19:52;;;;;;;19.38;13.40;;;5.20;92.70;;;;;;5035515;28;20108;-74
2024/01/29 07:22:19;;;;;;;20.13;13.90;;;5.20;92.70;;;;;;5048629;28;20108;-77
2024/01/29 07:24:48;;;;;;;21.15;13.68;;;5.20;92.80;;;;;;5041800;28;20112;-77
2024/01/29 07:27:17;;;;;;;18.08;12.98;;;5.20;92.80;;;;;;5036307;28;20028;-77
2024/01/29 07:29:43;;;;;;;19.13;12.65;;;5.20;92.90;;;;;;5037661;28;20025;-77
2024/01/29 07:32:09;;;;;;;18.67;12.95;;;5.20;92.90;;;;;;5033061;28;20070;-80
2024/01/29 07:34:36;;;;;;;15.70;11.80;;;5.30;92.90;;;;;;5035897;28;20053;-77
2024/01/29 07:37:02;;;;;;;16.55;11.85;;;5.30;92.90;;;;;;5037836;28;20037;-76
2024/01/29 07:39:29;;;;;;;17.98;12.40;;;5.30;92.90;;;;;;5041967;28;20045;-74
2024/01/29 07:41:54;;;;;;;17.60;12.50;;;5.30;92.90;;;;;;5041876;28;20025;-73
2024/01/29 07:44:20;;;;;;;17.73;11.98;;;5.30;92.90;;;;;;5038168;28;20029;-71
2024/01/29 07:46:46;;;;;;;17.17;12.43;;;5.40;92.90;;;;;;5032484;28;20021;-72
2024/01/29 07:49:12;;;;;;;18.20;12.43;;;5.40;92.80;;;;;;5030699;28;20036;-71
2024/01/29 07:51:40;;;;;;;18.70;13.25;;;5.40;92.80;;;;;;5051645;28;20499;-71
2024/01/29 07:54:07;;;;;;;17.58;12.95;;;5.40;92.80;;;;;;5047281;28;20041;-71
2024/01/29 07:56:32;;;;;;;18.63;12.73;;;5.50;92.70;;;;;;5039234;28;20096;-73
2024/01/29 07:58:58;;;;;;;18.13;13.30;;;5.50;92.60;;;;;;5036814;28;20116;-72
2024/01/29 08:01:24;;;;;;;17.88;12.05;;;5.50;92.60;;;;;;5038162;28;20021;-72
2024/01/29 08:03:50;;;;;;;21.25;13.88;;;5.50;92.60;;;;;;5034271;28;20108;-71
2024/01/29 08:06:16;;;;;;;16.75;12.60;;;5.60;92.60;;;;;;5032252;28;20317;-72
2024/01/29 08:08:41;;;;;;;22.35;12.98;;;5.60;92.50;;;;;;5041028;28;20021;-71
2024/01/29 08:11:07;;;;;;;20.55;12.57;;;5.70;92.50;;;;;;5041373;28;20029;-72
2024/01/29 08:13:33;;;;;;;17.45;12.13;;;5.70;92.40;;;;;;5038327;28;20029;-70
2024/01/29 08:15:59;;;;;;;18.77;12.20;;;5.80;92.40;;;;;;5033513;28;20017;-72
2024/01/29 08:18:25;;;;;;;17.33;11.98;;;5.80;92.40;;;;;;5037232;28;20017;-72
2024/01/29 08:20:51;;;;;;;17.67;12.70;;;5.90;92.30;;;;;;5040741;28;20028;-72
2024/01/29 08:23:16;;;;;;;18.88;12.27;;;5.90;92.20;;;;;;5042403;28;20025;-72
2024/01/29 08:25:42;;;;;;;16.60;11.93;;;6.00;92.10;;;;;;5037468;28;20032;-72
2024/01/29 08:28:08;;;;;;;16.52;11.55;;;6.00;92.00;;;;;;5039955;28;20104;-72
2024/01/29 08:30:34;;;;;;;18.45;12.77;;;6.10;92.00;;;;;;5037778;28;20042;-72
2024/01/29 08:33:00;;;;;;;14.63;11.32;;;6.10;91.90;;;;;;5029142;28;20064;-72
2024/01/29 08:35:25;;;;;;;18.50;13.13;;;6.10;91.80;;;;;;5036585;28;20098;-71
2024/01/29 08:37:51;;;;;;;17.02;12.23;;;6.20;91.80;;;;;;5044330;28;20017;-72
2024/01/29 08:40:16;;;;;;;18.75;12.95;;;6.20;91.70;;;;;;5041421;28;20111;-72
2024/01/29 08:42:42;;;;;;;17.05;12.75;;;6.20;91.70;;;;;;5051866;28;20453;-71
2024/01/29 08:45:08;;;;;;;15.70;12.10;;;6.20;91.70;;;;;;5042748;28;20501;-74
2024/01/29 08:47:34;;;;;;;18.25;12.13;;;6.30;91.70;;;;;;5035692;28;20024;-73
2024/01/29 08:50:00;;;;;;;19.40;12.63;;;6.40;91.60;;;;;;5038398;28;20338;-72
2024/01/29 08:52:25;;;;;;;19.10;12.00;;;6.40;91.40;;;;;;5037110;28;20044;-74
2024/01/29 08:54:51;;;;;;;18.05;12.68;;;6.50;91.30;;;;;;5028181;28;20120;-72
2024/01/29 08:57:17;;;;;;;18.48;12.60;;;6.50;91.30;;;;;;5031374;28;20029;-71
2024/01/29 08:59:43;;;;;;;17.63;11.95;;;6.60;91.00;;;;;;5030661;28;20449;-73
2024/01/29 09:02:08;;;;;;;17.90;12.95;;;6.60;90.90;;;;;;5037046;28;20047;-71
2024/01/29 09:04:34;;;;;;;17.30;12.63;;;6.60;90.90;;;;;;5031096;28;20033;-71
2024/01/29 09:07:00;;;;;;;16.42;12.63;;;6.60;90.80;;;;;;5037872;28;20017;-71
2024/01/29 09:09:26;;;;;;;16.98;12.32;;;6.70;90.70;;;;;;5038597;28;20496;-73
2024/01/29 09:11:51;;;;;;;16.50;12.18;;;6.70;90.60;;;;;;5034213;28;20017;-72
2024/01/29 09:14:19;;;;;;;19.10;12.85;;;6.70;90.60;;;;;;5047519;28;20049;-71
2024/01/29 09:16:45;;;;;;;15.73;12.38;;;6.70;90.50;;;;;;5028023;28;20076;-72
2024/01/29 09:19:13;;;;;;;17.83;13.18;;;6.70;90.50;;;;;;5037555;28;20021;-72
2024/01/29 09:21:41;;;;;;;19.30;13.90;;;6.60;90.60;;;;;;5048429;28;20048;-72
2024/01/29 09:24:06;;;;;;;21.70;13.57;;;6.70;90.50;;;;;;5036341;28;20466;-72
2024/01/29 09:26:32;;;;;;;20.50;13.45;;;6.70;90.50;;;;;;5032999;28;20036;-72
2024/01/29 09:28:58;;;;;;;18.23;12.57;;;6.80;90.50;;;;;;5037231;28;20033;-71
2024/01/29 09:31:24;;;;;;;16.33;12.25;;;6.70;90.40;;;;;;5032746;28;20021;-74
2024/01/29 09:33:51;;;;;;;17.40;12.25;;;6.80;90.50;;;;;;5042022;28;20098;-72
2024/01/29 09:36:17;;;;;;;19.08;13.30;;;6.80;90.60;;;;;;5037546;28;20041;-70
2024/01/29 09:38:42;;;;;;;17.05;13.27;;;6.90;90.50;;;;;;5039787;28;20024;-69
2024/01/29 09:41:08;;;;;;;18.08;13.43;;;6.90;90.60;;;;;;5037251;28;20488;-71
2024/01/29 09:43:35;;;;;;;19.58;13.40;;;7.10;90.70;;;;;;5041317;27;20028;-72
2024/01/29 09:46:04;;;;;;;17.35;13.50;;;7.30;90.40;;;;;;5046703;28;20044;-72
2024/01/29 09:48:33;;;;;;;17.63;13.23;;;7.50;89.70;;;;;;5030178;28;20057;-73
2024/01/29 09:51:00;;;;;;;17.35;14.23;;;7.60;89.20;;;;;;5033908;28;20458;-73
2024/01/29 09:53:27;;;;;;;16.77;12.55;;;7.80;89.20;;;;;;5034373;28;20408;-71
2024/01/29 09:55:52;;;;;;;18.45;13.15;;;8.00;88.60;;;;;;5038811;28;20056;-74
2024/01/29 09:58:19;;;;;;;17.92;12.73;;;8.10;88.20;;;;;;5036947;28;20056;-73
2024/01/29 10:00:45;;;;;;;16.27;12.57;;;8.20;88.00;;;;;;5034582;28;20073;-71
2024/01/29 10:03:27;;;;;;;16.05;12.77;;;8.30;87.70;;;;;;5037525;28;20052;-71
2024/01/29 10:05:53;;;;;;;17.63;12.45;;;8.40;87.50;;;;;;5030848;28;20423;-71
2024/01/29 10:08:21;;;;;;;19.08;12.93;;;8.50;87.80;;;;;;5043740;28;20048;-71
2024/01/29 10:10:48;;;;;;;17.60;14.05;;;8.60;87.40;;;;;;5037787;28;20502;-74
2024/01/29 10:13:14;;;;;;;38.17;28.60;;;8.70;87.60;;;;;;5029200;28;20514;-70
2024/01/29 10:15:42;;;;;;;34.92;25.42;;;8.80;86.90;;;;;;5033889;28;20108;-70
2024/01/29 10:18:12;;;;;;;31.80;23.30;;;8.80;86.90;;;;;;5037674;28;20025;-71
2024/01/29 10:20:38;;;;;;;46.92;34.08;;;8.90;86.90;;;;;;5036802;28;20029;-70
2024/01/29 10:23:04;;;;;;;60.55;45.28;;;9.00;87.10;;;;;;5034226;28;20060;-69
2024/01/29 10:25:32;;;;;;;27.73;20.58;;;9.10;87.00;;;;;;5025733;28;20053;-69
2024/01/29 10:28:11;;;;;;;21.08;17.35;;;9.10;86.80;;;;;;5039807;28;20100;-70
2024/01/29 10:30:41;;;;;;;19.23;14.48;;;9.10;87.00;;;;;;5025529;28;20044;-70
2024/01/29 10:33:07;;;;;;;19.45;15.52;;;9.10;87.00;;;;;;5031253;28;20064;-70
2024/01/29 10:35:33;;;;;;;17.85;14.77;;;9.10;87.20;;;;;;5047493;28;20074;-71
2024/01/29 10:38:04;;;;;;;20.05;15.25;;;9.10;87.10;;;;;;5031289;28;20020;-70
2024/01/29 10:40:31;;;;;;;22.40;18.70;;;9.30;87.30;;;;;;5032503;28;20497;-71
2024/01/29 10:43:01;;;;;;;20.63;17.13;;;9.40;87.10;;;;;;5036998;28;20017;-71
2024/01/29 10:45:27;;;;;;;22.08;18.20;;;9.60;86.80;;;;;;5031237;28;20032;-70
2024/01/29 10:48:19;;;;;;;21.83;17.75;;;9.60;86.50;;;;;;5040674;28;20045;-70
2024/01/29 10:50:47;;;;;;;19.02;15.13;;;9.70;86.70;;;;;;5045596;28;20042;-71
2024/01/29 10:53:15;;;;;;;19.27;15.32;;;10.00;86.40;;;;;;5035383;28;20033;-70
2024/01/29 10:55:48;;;;;;;25.83;22.40;;;10.00;86.00;;;;;;5040601;28;20021;-71
2024/01/29 10:58:15;;;;;;;27.35;23.35;;;10.10;86.10;;;;;;5022615;28;20032;-72
2024/01/29 11:00:42;;;;;;;29.88;20.70;;;10.10;86.00;;;;;;5028802;28;20036;-70
2024/01/29 11:03:10;;;;;;;23.85;18.35;;;10.10;85.90;;;;;;5034274;28;20036;-71
2024/01/29 11:05:38;;;;;;;21.05;17.90;;;10.10;85.70;;;;;;5033622;28;20032;-70
2024/01/29 11:08:09;;;;;;;22.45;17.88;;;10.20;86.00;;;;;;5028659;28;20021;-71
2024/01/29 11:10:35;;;;;;;21.20;15.15;;;10.40;86.20;;;;;;5033486;28;20040;-71
2024/01/29 11:13:04;;;;;;;20.17;15.73;;;10.40;85.80;;;;;;5035343;28;20397;-72
2024/01/29 11:15:31;;;;;;;20.58;16.45;;;10.60;85.50;;;;;;5033346;28;20025;-71
2024/01/29 11:17:58;;;;;;;21.38;15.52;;;10.70;85.30;;;;;;5036963;28;20013;-71
2024/01/29 11:20:24;;;;;;;19.08;15.13;;;10.70;85.00;;;;;;5021018;28;20112;-72
2024/01/29 11:22:59;;;;;;;18.05;14.95;;;10.90;85.00;;;;;;5035428;28;20314;-72
2024/01/29 11:25:29;;;;;;;19.90;15.07;;;10.90;84.90;;;;;;5029009;28;20044;-72
2024/01/29 11:27:56;;;;;;;17.58;13.98;;;10.90;84.70;;;;;;5047548;28;20117;-72
2024/01/29 11:30:26;;;;;;;15.10;13.30;;;10.90;84.80;;;;;;5044797;28;20037;-72
2024/01/29 11:32:55;;;;;;;18.08;14.07;;;10.90;85.10;;;;;;5035168;28;20101;-71
2024/01/29 11:35:23;;;;;;;19.00;14.02;;;10.90;85.40;;;;;;5036214;28;20057;-73
2024/01/29 11:37:50;;;;;;;19.15;14.90;;;10.90;85.50;;;;;;5037274;28;20021;-73
2024/01/29 11:40:40;;;;;;;17.38;14.52;;;10.90;85.70;;;;;;5032851;28;20057;-72
2024/01/29 11:43:21;;;;;;;17.90;14.55;;;11.10;85.30;;;;;;5041173;28;20037;-71
2024/01/29 11:45:50;;;;;;;16.88;14.13;;;11.10;85.30;;;;;;5040658;28;20541;-71
2024/01/29 11:48:18;;;;;;;21.58;14.63;;;11.20;85.30;;;;;;5041538;28;20025;-72
2024/01/29 11:50:46;;;;;;;18.80;15.50;;;11.20;85.30;;;;;;5023663;28;20036;-71
2024/01/29 11:53:16;;;;;;;18.42;14.60;;;11.40;85.10;;;;;;5037752;28;20049;-71
2024/01/29 11:55:43;;;;;;;15.98;14.00;;;11.40;85.10;;;;;;5036716;28;20032;-72
2024/01/29 11:58:13;;;;;;;17.77;13.93;;;11.50;85.00;;;;;;5034900;28;20025;-72
2024/01/29 12:00:44;;;;;;;19.35;14.95;;;11.50;85.10;;;;;;5036495;28;20048;-71
2024/01/29 12:03:12;;;;;;;16.45;14.57;;;11.50;85.00;;;;;;5036482;28;20025;-72
2024/01/29 12:05:38;;;;;;;19.67;14.23;;;11.50;85.00;;;;;;5043881;28;20120;-71
2024/01/29 12:08:13;;;;;;;18.23;14.77;;;11.50;85.10;;;;;;5046787;28;20319;-71
2024/01/29 12:10:38;;;;;;;19.15;13.93;;;11.60;85.10;;;;;;5040065;28;20032;-71
2024/01/29 12:13:10;;;;;;;18.85;14.30;;;11.60;84.90;;;;;;5039441;28;20025;-71
2024/01/29 12:15:35;;;;;;;17.85;14.80;;;11.70;85.00;;;;;;5062535;28;20029;-71
2024/01/29 12:18:07;;;;;;;19.48;14.75;;;11.60;85.10;;;;;;5072361;28;20472;-71
2024/01/29 12:20:34;;;;;;;18.20;14.55;;;11.60;85.20;;;;;;5042274;28;20078;-70
2024/01/29 12:23:00;;;;;;;18.08;14.32;;;11.70;85.30;;;;;;5041806;28;20021;-72
2024/01/29 12:25:26;;;;;;;18.35;14.38;;;11.70;85.30;;;;;;5035724;28;20048;-71
2024/01/29 12:28:05;;;;;;;16.60;14.20;;;11.80;85.30;;;;;;5044108;28;20013;-71
2024/01/29 12:30:31;;;;;;;20.10;13.93;;;11.90;85.10;;;;;;5033058;28;20025;-74
2024/01/29 12:32:57;;;;;;;19.30;14.57;;;12.00;85.30;;;;;;5039295;28;20131;-72